Time;durP1;ratioP1;P1;durP2;ratioP2;P2;SDS_P1;SDS_P2;PMS_P1;PMS_P2;Temp;Humidity;BMP_temperature;BMP_pressure;BME280_temperature;BME280_humidity;BME280_pressure;Samples;Min_cycle;Max_cycle;Signal;HPM_P1;HPM_P2
2023/01/10 00:00:26;;;;;;;3.23;1.83;;;7.90;99.90;;;;;;5078102;28;20189;-74
2023/01/10 00:02:52;;;;;;;3.57;2.37;;;7.90;99.90;;;;;;5073105;28;20167;-73
2023/01/10 00:05:18;;;;;;;3.80;2.07;;;7.90;99.90;;;;;;5077758;28;20213;-74
2023/01/10 00:07:45;;;;;;;3.90;2.20;;;7.90;99.90;;;;;;5080212;28;20211;-74
2023/01/10 00:10:11;;;;;;;4.93;2.67;;;7.90;99.90;;;;;;5069855;28;20261;-72
2023/01/10 00:15:21;;;;;;;5.20;2.20;;;7.90;99.90;;;;;;5077774;28;20237;-73
2023/01/10 00:17:47;;;;;;;2.47;2.17;;;7.90;99.90;;;;;;5084314;28;20178;-73
2023/01/10 00:20:13;;;;;;;4.53;2.27;;;7.90;99.90;;;;;;5078820;28;20724;-73
2023/01/10 00:22:38;;;;;;;4.93;2.30;;;7.90;99.90;;;;;;5082139;28;20214;-75
2023/01/10 00:25:05;;;;;;;3.40;2.17;;;7.90;99.90;;;;;;5063405;28;20226;-74
2023/01/10 00:27:30;;;;;;;2.67;2.10;;;7.90;99.90;;;;;;5083523;28;20248;-75
2023/01/10 00:29:59;;;;;;;2.73;1.80;;;7.90;99.90;;;;;;5080874;28;20213;-76
2023/01/10 00:32:25;;;;;;;2.60;2.03;;;7.90;99.90;;;;;;5064150;28;20229;-73
2023/01/10 00:34:51;;;;;;;4.80;2.13;;;7.80;99.90;;;;;;5081982;28;20669;-75
2023/01/10 00:37:17;;;;;;;3.50;2.57;;;7.80;99.90;;;;;;5080365;28;20198;-74
2023/01/10 00:39:42;;;;;;;7.50;2.40;;;7.80;99.90;;;;;;5064839;28;20616;-74
2023/01/10 00:44:54;;;;;;;3.80;2.50;;;7.70;99.90;;;;;;5079344;28;20761;-74
2023/01/10 00:47:20;;;;;;;2.70;2.20;;;7.80;99.90;;;;;;5083806;28;20247;-73
2023/01/10 00:49:46;;;;;;;4.17;2.33;;;7.70;99.90;;;;;;5080913;28;20210;-75
2023/01/10 00:52:11;;;;;;;5.00;2.70;;;7.80;99.90;;;;;;5079335;28;20564;-75
2023/01/10 00:54:37;;;;;;;4.90;3.03;;;7.80;99.90;;;;;;5083707;28;20206;-74
2023/01/10 00:57:02;;;;;;;3.67;2.20;;;7.70;99.90;;;;;;5081448;28;20182;-75
2023/01/10 00:59:28;;;;;;;3.30;2.37;;;7.70;99.90;;;;;;5064939;28;20222;-75
2023/01/10 01:01:54;;;;;;;2.77;2.33;;;7.70;99.90;;;;;;5079589;28;20249;-73
2023/01/10 01:04:19;;;;;;;4.00;2.37;;;7.70;99.90;;;;;;5074901;28;20313;-75
2023/01/10 01:06:46;;;;;;;4.97;3.27;;;7.70;99.90;;;;;;5082885;28;20267;-75
2023/01/10 01:09:13;;;;;;;2.97;1.80;;;7.60;99.90;;;;;;5077150;28;20721;-74
2023/01/10 01:11:39;;;;;;;4.43;2.20;;;7.70;99.90;;;;;;5065580;28;20175;-75
2023/01/10 01:14:05;;;;;;;4.33;3.00;;;7.70;99.90;;;;;;5080627;28;20264;-74
2023/01/10 01:16:30;;;;;;;3.60;2.53;;;7.70;99.90;;;;;;5077484;28;20645;-75
2023/01/10 01:18:57;;;;;;;4.97;2.20;;;7.70;99.90;;;;;;5081893;28;20255;-74
2023/01/10 01:21:26;;;;;;;5.23;2.67;;;7.60;99.90;;;;;;5082858;28;20236;-73
2023/01/10 01:23:55;;;;;;;5.07;2.70;;;7.60;99.90;;;;;;5077296;28;20200;-72
2023/01/10 01:26:22;;;;;;;3.20;2.47;;;7.60;99.90;;;;;;5080064;28;20199;-73
2023/01/10 01:28:48;;;;;;;4.60;2.50;;;7.50;99.90;;;;;;5062821;28;20242;-73
2023/01/10 01:31:13;;;;;;;4.63;2.30;;;7.50;99.90;;;;;;5079334;28;20233;-74
2023/01/10 01:33:39;;;;;;;3.53;2.20;;;7.40;99.90;;;;;;5081762;28;20207;-74
2023/01/10 01:36:10;;;;;;;3.13;2.20;;;7.40;99.90;;;;;;5078316;28;20170;-74
2023/01/10 01:38:37;;;;;;;4.20;2.47;;;7.40;99.90;;;;;;5081018;28;20210;-73
2023/01/10 01:41:03;;;;;;;4.03;2.77;;;7.30;99.90;;;;;;5079366;28;20207;-73
2023/01/10 01:43:30;;;;;;;3.77;2.40;;;7.30;99.90;;;;;;5065056;28;20207;-74
2023/01/10 01:46:02;;;;;;;3.77;2.50;;;7.20;99.90;;;;;;5078608;28;20348;-74
2023/01/10 01:48:38;;;;;;;4.33;2.00;;;7.20;99.90;;;;;;5065258;28;20679;-73
2023/01/10 01:51:18;;;;;;;4.40;2.50;;;7.20;99.90;;;;;;5079463;28;20256;-74
2023/01/10 01:53:47;;;;;;;5.23;2.43;;;7.20;99.90;;;;;;5078497;28;20743;-72
2023/01/10 01:56:19;;;;;;;3.07;2.10;;;7.10;99.90;;;;;;5079514;28;20233;-74
2023/01/10 01:58:52;;;;;;;3.63;2.63;;;7.10;99.90;;;;;;5076004;28;20206;-74
2023/01/10 02:01:18;;;;;;;4.13;2.70;;;7.10;99.90;;;;;;5081266;28;20295;-73
2023/01/10 02:03:49;;;;;;;7.13;3.07;;;7.10;99.90;;;;;;5080095;28;20251;-73
2023/01/10 02:06:17;;;;;;;4.97;2.50;;;7.00;99.90;;;;;;5080074;28;20172;-74
2023/01/10 02:08:49;;;;;;;5.00;3.07;;;7.00;99.90;;;;;;5081785;28;20277;-74
2023/01/10 02:11:15;;;;;;;4.30;3.00;;;7.00;99.90;;;;;;5073893;28;20337;-73
2023/01/10 02:13:42;;;;;;;5.07;3.40;;;6.90;99.90;;;;;;5081506;28;20281;-72
2023/01/10 02:16:08;;;;;;;6.90;2.90;;;6.80;99.90;;;;;;5080915;28;20788;-74
2023/01/10 02:18:36;;;;;;;5.80;2.80;;;6.80;99.90;;;;;;5080243;28;20206;-74
2023/01/10 02:21:26;;;;;;;8.67;3.33;;;6.80;99.90;;;;;;5061163;28;20186;-73
2023/01/10 02:24:32;;;;;;;3.30;2.27;;;6.90;99.90;;;;;;5060977;28;20206;-72
2023/01/10 02:27:24;;;;;;;7.33;3.17;;;7.00;99.90;;;;;;5078065;28;20661;-73
2023/01/10 02:30:22;;;;;;;4.27;2.67;;;7.00;99.90;;;;;;5075809;28;20219;-72
2023/01/10 02:32:53;;;;;;;6.77;2.63;;;7.00;99.90;;;;;;5068286;28;20692;-74
2023/01/10 02:35:38;;;;;;;2.87;1.80;;;7.00;99.90;;;;;;5079795;28;20263;-73
2023/01/10 02:38:36;;;;;;;2.83;2.00;;;7.10;99.90;;;;;;5068087;28;20217;-73
2023/01/10 02:41:26;;;;;;;3.73;1.90;;;7.10;99.90;;;;;;5018517;28;20302;-74
2023/01/10 02:44:15;;;;;;;3.27;2.20;;;7.20;99.90;;;;;;5066970;28;20239;-74
2023/01/10 02:46:43;;;;;;;3.97;2.67;;;7.20;99.90;;;;;;5079371;28;20230;-73
2023/01/10 02:49:09;;;;;;;4.10;2.40;;;7.10;99.90;;;;;;5076734;28;20206;-72
2023/01/10 02:51:34;;;;;;;4.33;2.60;;;7.10;99.90;;;;;;5078676;28;20207;-74
2023/01/10 02:54:17;;;;;;;4.47;2.50;;;7.10;99.90;;;;;;5079788;28;20261;-75
2023/01/10 02:56:58;;;;;;;4.17;2.97;;;7.10;99.90;;;;;;5061751;28;20218;-74
2023/01/10 02:59:57;;;;;;;7.80;3.17;;;7.10;99.90;;;;;;5073973;28;20215;-71
2023/01/10 03:02:28;;;;;;;5.77;3.17;;;7.10;99.90;;;;;;5041134;28;20214;-74
2023/01/10 03:05:15;;;;;;;5.53;2.80;;;7.20;99.90;;;;;;5062799;28;20239;-73
2023/01/10 03:07:59;;;;;;;7.47;3.10;;;7.20;99.90;;;;;;5053696;28;20279;-73
2023/01/10 03:10:49;;;;;;;4.13;2.57;;;7.20;99.90;;;;;;5080992;28;20206;-72
2023/01/10 03:13:27;;;;;;;6.03;2.97;;;7.20;99.90;;;;;;5075766;28;20554;-74
2023/01/10 03:15:55;;;;;;;5.90;3.37;;;7.20;99.90;;;;;;5060783;28;20207;-72
2023/01/10 03:18:27;;;;;;;5.63;2.80;;;7.20;99.90;;;;;;5056821;28;20795;-74
2023/01/10 03:20:56;;;;;;;4.67;3.40;;;7.20;99.90;;;;;;5079538;28;20682;-71
2023/01/10 03:23:24;;;;;;;7.30;3.50;;;7.20;99.90;;;;;;5062182;28;20233;-73
2023/01/10 03:25:55;;;;;;;5.60;2.97;;;7.20;99.90;;;;;;5065509;28;20229;-71
2023/01/10 03:28:37;;;;;;;5.73;3.50;;;7.20;99.90;;;;;;5064874;28;20219;-73
2023/01/10 03:31:13;;;;;;;7.07;3.20;;;7.20;99.90;;;;;;5074175;28;20221;-74
2023/01/10 03:33:39;;;;;;;8.10;3.33;;;7.20;99.90;;;;;;5076175;28;20684;-74
2023/01/10 03:37:04;;;;;;;7.93;3.40;;;7.20;99.90;;;;;;5075276;28;20730;-73
2023/01/10 03:39:40;;;;;;;7.53;3.83;;;7.20;99.90;;;;;;5047751;28;20317;-74
2023/01/10 03:44:42;;;;;;;6.43;3.23;;;7.20;99.90;;;;;;5069214;28;20278;-74
2023/01/10 03:45:28;;;;;;;5.60;3.43;;;7.10;99.90;;;;;;5070411;28;20222;-74
2023/01/10 03:47:57;;;;;;;6.00;3.53;;;7.20;99.90;;;;;;5056665;28;20280;-72
2023/01/10 03:50:27;;;;;;;6.00;3.83;;;7.20;99.90;;;;;;5061933;28;20209;-73
2023/01/10 03:52:53;;;;;;;8.50;3.97;;;7.30;99.90;;;;;;5070568;28;20206;-71
2023/01/10 03:55:23;;;;;;;4.17;2.97;;;7.30;99.90;;;;;;5078374;28;20207;-73
2023/01/10 03:57:48;;;;;;;6.20;3.70;;;7.20;99.90;;;;;;5083204;28;20210;-73
2023/01/10 04:00:15;;;;;;;6.07;3.83;;;7.20;99.90;;;;;;5072553;28;20256;-74
2023/01/10 04:02:41;;;;;;;6.07;3.63;;;7.20;99.90;;;;;;5081918;28;20253;-73
2023/01/10 04:05:07;;;;;;;10.17;4.30;;;7.20;99.90;;;;;;5078699;28;20701;-72
2023/01/10 04:07:33;;;;;;;6.57;3.63;;;7.20;99.90;;;;;;5079860;28;20251;-73
2023/01/10 04:09:59;;;;;;;10.07;4.70;;;7.20;99.90;;;;;;5059468;28;20752;-74
2023/01/10 04:12:25;;;;;;;7.73;4.27;;;7.10;99.90;;;;;;5074923;28;20180;-73
2023/01/10 04:14:51;;;;;;;8.00;4.63;;;7.10;99.90;;;;;;5061266;28;20186;-74
2023/01/10 04:17:17;;;;;;;13.23;4.50;;;7.10;99.90;;;;;;5081268;28;20244;-74
2023/01/10 04:19:43;;;;;;;10.93;4.90;;;7.10;99.90;;;;;;5074377;28;20222;-73
2023/01/10 04:22:10;;;;;;;9.60;4.17;;;7.10;99.90;;;;;;5075831;28;20708;-74
2023/01/10 04:24:36;;;;;;;13.03;5.47;;;7.10;99.90;;;;;;5064545;28;20249;-75
2023/01/10 04:27:01;;;;;;;14.80;5.20;;;7.10;99.90;;;;;;5073986;28;20799;-74
2023/01/10 04:29:27;;;;;;;8.43;4.60;;;7.10;99.90;;;;;;5064246;28;20275;-74
2023/01/10 04:31:53;;;;;;;10.07;5.60;;;7.10;99.90;;;;;;5080643;28;20411;-72
2023/01/10 04:34:19;;;;;;;9.43;4.77;;;7.10;99.90;;;;;;5074070;28;20716;-73
2023/01/10 04:36:45;;;;;;;9.47;5.30;;;7.10;99.90;;;;;;5079778;28;20705;-73
2023/01/10 04:39:11;;;;;;;13.80;5.10;;;7.10;99.90;;;;;;5074114;28;20298;-73
2023/01/10 04:41:37;;;;;;;15.00;5.13;;;7.10;99.90;;;;;;5072828;28;20205;-74
2023/01/10 04:44:03;;;;;;;9.27;5.40;;;7.10;99.90;;;;;;5078765;28;20559;-73
2023/01/10 04:46:29;;;;;;;11.67;5.20;;;7.10;99.90;;;;;;5056714;28;20770;-74
2023/01/10 04:48:54;;;;;;;11.73;5.60;;;7.10;99.90;;;;;;5059059;28;20206;-73
2023/01/10 04:51:20;;;;;;;9.67;4.93;;;7.10;99.90;;;;;;5081930;28;20178;-74
2023/01/10 04:53:46;;;;;;;9.37;4.93;;;7.10;99.90;;;;;;5074893;28;20280;-73
2023/01/10 04:56:18;;;;;;;8.00;5.00;;;7.10;99.90;;;;;;5076217;28;20207;-73
2023/01/10 04:58:43;;;;;;;8.00;4.93;;;7.10;99.90;;;;;;5063977;28;20228;-73
2023/01/10 05:01:27;;;;;;;11.85;5.82;;;7.00;99.90;;;;;;5073360;28;20435;-73
2023/01/10 05:03:54;;;;;;;14.23;5.10;;;7.10;99.90;;;;;;5077718;28;20698;-72
2023/01/10 05:06:21;;;;;;;10.13;5.53;;;7.10;99.90;;;;;;5062679;28;20182;-72
2023/01/10 05:08:47;;;;;;;14.83;5.60;;;7.10;99.90;;;;;;5078605;28;20202;-74
2023/01/10 05:11:13;;;;;;;10.67;5.47;;;7.10;99.90;;;;;;5078943;28;20200;-74
2023/01/10 05:13:39;;;;;;;9.57;5.60;;;7.10;99.90;;;;;;5074149;28;20713;-74
2023/01/10 05:16:05;;;;;;;14.07;5.57;;;7.10;99.90;;;;;;5056707;28;20210;-73
2023/01/10 05:18:31;;;;;;;14.93;5.53;;;7.10;99.90;;;;;;5063969;28;20263;-74
2023/01/10 05:21:01;;;;;;;11.23;5.07;;;7.10;99.90;;;;;;5074523;28;20174;-74
2023/01/10 05:23:27;;;;;;;11.17;5.23;;;7.10;99.90;;;;;;5081020;28;20692;-72
2023/01/10 05:25:53;;;;;;;11.67;6.07;;;7.20;99.90;;;;;;5061160;28;20218;-71
2023/01/10 05:28:18;;;;;;;11.13;5.73;;;7.20;99.90;;;;;;5055250;28;20221;-74
2023/01/10 05:30:44;;;;;;;17.43;6.30;;;7.20;99.90;;;;;;5060660;28;20576;-74
2023/01/10 05:33:10;;;;;;;12.30;5.87;;;7.20;99.90;;;;;;5072794;28;20197;-72
2023/01/10 05:35:35;;;;;;;17.23;5.97;;;7.20;99.90;;;;;;5078585;28;20171;-74
2023/01/10 05:38:01;;;;;;;12.57;5.53;;;7.20;99.90;;;;;;5078519;28;20264;-74
2023/01/10 05:40:27;;;;;;;14.73;5.80;;;7.20;99.90;;;;;;5072999;28;20200;-73
2023/01/10 05:42:52;;;;;;;11.27;5.40;;;7.20;99.90;;;;;;5076927;28;20205;-72
2023/01/10 05:45:18;;;;;;;17.13;6.27;;;7.20;99.90;;;;;;5080429;28;20726;-74
2023/01/10 05:47:44;;;;;;;14.63;6.27;;;7.20;99.90;;;;;;5079326;28;20185;-74
2023/01/10 05:50:10;;;;;;;9.20;5.90;;;7.20;99.90;;;;;;5079401;28;20697;-74
2023/01/10 05:52:36;;;;;;;18.03;6.27;;;7.20;99.90;;;;;;5081735;28;20675;-73
2023/01/10 05:55:01;;;;;;;13.07;6.20;;;7.20;99.90;;;;;;5072383;28;20202;-73
2023/01/10 05:57:27;;;;;;;15.50;6.33;;;7.30;99.90;;;;;;5083014;28;20181;-73
2023/01/10 05:59:52;;;;;;;11.17;6.20;;;7.30;99.90;;;;;;5060612;28;20247;-72
2023/01/10 06:02:18;;;;;;;13.83;6.67;;;7.30;99.90;;;;;;5080852;28;20555;-72
2023/01/10 06:04:44;;;;;;;17.80;6.93;;;7.30;99.90;;;;;;5063101;28;20280;-73
2023/01/10 06:07:09;;;;;;;14.43;6.93;;;7.30;99.90;;;;;;5073647;28;20203;-73
2023/01/10 06:09:35;;;;;;;10.43;5.97;;;7.30;99.90;;;;;;5082196;28;20302;-73
2023/01/10 06:12:01;;;;;;;15.70;6.67;;;7.30;99.90;;;;;;5077054;28;20175;-74
2023/01/10 06:14:26;;;;;;;13.77;7.53;;;7.30;99.90;;;;;;5076371;28;20207;-72
2023/01/10 06:16:52;;;;;;;11.97;5.67;;;7.30;99.90;;;;;;5079487;28;20209;-74
2023/01/10 06:19:17;;;;;;;13.73;5.60;;;7.20;99.90;;;;;;5080416;28;20214;-74
2023/01/10 06:21:43;;;;;;;14.47;5.73;;;7.30;99.90;;;;;;5061575;28;20206;-74
2023/01/10 06:24:09;;;;;;;15.90;5.83;;;7.30;99.90;;;;;;5074902;28;20574;-73
2023/01/10 06:26:34;;;;;;;12.77;6.47;;;7.30;99.90;;;;;;5079928;28;20175;-73
2023/01/10 06:29:00;;;;;;;13.07;5.80;;;7.30;99.90;;;;;;5080044;28;20211;-72
2023/01/10 06:31:26;;;;;;;9.70;5.77;;;7.30;99.90;;;;;;5081692;28;20226;-72
2023/01/10 06:33:52;;;;;;;15.33;6.37;;;7.30;99.90;;;;;;5075367;28;20214;-73
2023/01/10 06:36:18;;;;;;;13.50;5.90;;;7.30;99.90;;;;;;5057608;28;20167;-74
2023/01/10 06:38:43;;;;;;;13.10;5.80;;;7.30;99.90;;;;;;5081484;28;20251;-72
2023/01/10 06:41:12;;;;;;;14.93;5.47;;;7.30;99.90;;;;;;5073006;28;20285;-74
2023/01/10 06:43:45;;;;;;;15.67;6.40;;;7.30;99.90;;;;;;5081381;28;20224;-74
2023/01/10 06:46:12;;;;;;;11.93;5.67;;;7.30;99.90;;;;;;5077679;28;20210;-73
2023/01/10 06:48:38;;;;;;;18.37;6.57;;;7.30;99.90;;;;;;5061340;28;20290;-74
2023/01/10 06:51:05;;;;;;;13.13;5.37;;;7.30;99.90;;;;;;5078364;28;20186;-73
2023/01/10 06:53:31;;;;;;;11.00;5.80;;;7.30;99.90;;;;;;5079035;28;20763;-74
2023/01/10 06:55:56;;;;;;;13.03;6.43;;;7.40;99.90;;;;;;5062056;28;20289;-73
2023/01/10 06:58:23;;;;;;;16.50;6.73;;;7.40;99.90;;;;;;5081381;28;20241;-72
2023/01/10 07:00:49;;;;;;;16.93;6.63;;;7.40;99.90;;;;;;5077871;28;20213;-72
2023/01/10 07:03:15;;;;;;;14.00;6.83;;;7.30;99.90;;;;;;5078964;28;20183;-72
2023/01/10 07:05:40;;;;;;;14.67;6.77;;;7.30;99.90;;;;;;5061593;28;20221;-73
2023/01/10 07:08:06;;;;;;;14.03;6.17;;;7.30;99.90;;;;;;5078237;28;20598;-74
2023/01/10 07:10:31;;;;;;;12.40;6.77;;;7.20;99.90;;;;;;5081003;28;20202;-74
2023/01/10 07:12:58;;;;;;;14.67;7.10;;;7.20;99.90;;;;;;5078585;28;20235;-74
2023/01/10 07:15:25;;;;;;;16.70;7.77;;;7.20;99.90;;;;;;5078787;28;20179;-74
2023/01/10 07:17:51;;;;;;;15.30;7.20;;;7.20;99.90;;;;;;5061294;28;20178;-74
2023/01/10 07:20:18;;;;;;;16.60;6.50;;;7.20;99.90;;;;;;5076849;28;20267;-74
2023/01/10 07:22:43;;;;;;;20.33;7.10;;;7.20;99.90;;;;;;5081543;28;20225;-74
2023/01/10 07:25:09;;;;;;;14.10;7.53;;;7.20;99.90;;;;;;5078628;28;20210;-73
2023/01/10 07:27:35;;;;;;;18.10;6.60;;;7.20;99.90;;;;;;5060301;28;20214;-74
2023/01/10 07:30:01;;;;;;;17.67;7.53;;;7.10;99.90;;;;;;5060138;28;20248;-74
2023/01/10 07:32:27;;;;;;;18.27;7.33;;;7.10;99.90;;;;;;5081317;28;20214;-74
2023/01/10 07:34:52;;;;;;;19.87;7.57;;;7.00;99.90;;;;;;5077737;28;20217;-74
2023/01/10 07:37:18;;;;;;;17.50;7.67;;;7.00;99.90;;;;;;5059565;28;20208;-74
2023/01/10 07:39:44;;;;;;;14.87;7.90;;;7.00;99.90;;;;;;5078837;28;20588;-74
2023/01/10 07:42:09;;;;;;;16.97;7.83;;;7.00;99.90;;;;;;5077977;28;20175;-74
2023/01/10 07:44:35;;;;;;;20.20;7.80;;;7.00;99.90;;;;;;5060279;28;20293;-74
2023/01/10 07:47:01;;;;;;;13.07;7.33;;;7.00;99.90;;;;;;5074736;28;20284;-73
2023/01/10 07:49:27;;;;;;;17.53;7.70;;;7.10;99.90;;;;;;5054948;28;20227;-73
2023/01/10 07:51:52;;;;;;;16.13;7.80;;;7.10;99.90;;;;;;5079035;28;20239;-73
2023/01/10 07:54:18;;;;;;;13.07;7.27;;;7.10;99.90;;;;;;5059526;28;20190;-73
2023/01/10 07:56:46;;;;;;;14.27;7.23;;;7.10;99.90;;;;;;5074774;28;20194;-74
2023/01/10 07:59:12;;;;;;;16.03;8.03;;;7.10;99.90;;;;;;5081888;28;20245;-73
2023/01/10 08:01:37;;;;;;;14.40;7.33;;;7.10;99.90;;;;;;5077617;28;20229;-74
2023/01/10 08:04:04;;;;;;;11.17;6.83;;;7.20;99.90;;;;;;5058244;28;20223;-74
2023/01/10 08:06:30;;;;;;;12.83;7.67;;;7.20;99.90;;;;;;5081138;28;20206;-75
2023/01/10 08:08:55;;;;;;;16.30;7.70;;;7.30;99.90;;;;;;5073124;28;20194;-75
2023/01/10 08:11:21;;;;;;;14.73;7.70;;;7.30;99.90;;;;;;5058637;28;20195;-75
2023/01/10 08:13:46;;;;;;;14.27;7.33;;;7.30;99.90;;;;;;5078706;28;20202;-74
2023/01/10 08:16:14;;;;;;;15.30;7.53;;;7.40;99.90;;;;;;5077254;28;20233;-75
2023/01/10 08:18:41;;;;;;;17.33;8.07;;;7.40;99.90;;;;;;5080597;28;20213;-72
2023/01/10 08:21:08;;;;;;;14.87;8.03;;;7.40;99.90;;;;;;5076997;28;20666;-74
2023/01/10 08:23:34;;;;;;;19.87;8.43;;;7.40;99.90;;;;;;5080783;28;20248;-74
2023/01/10 08:26:00;;;;;;;15.60;7.83;;;7.50;99.90;;;;;;5077807;28;20218;-74
2023/01/10 08:28:25;;;;;;;16.30;7.33;;;7.50;99.90;;;;;;5078159;28;20226;-72
2023/01/10 08:30:54;;;;;;;14.07;7.53;;;7.50;99.90;;;;;;5079054;28;20304;-74
2023/01/10 08:33:26;;;;;;;21.67;7.77;;;7.50;99.90;;;;;;5080545;28;20180;-74
2023/01/10 08:35:51;;;;;;;18.97;7.97;;;7.50;99.90;;;;;;5057051;28;20174;-75
2023/01/10 08:38:17;;;;;;;11.77;6.83;;;7.50;99.90;;;;;;5079848;28;20214;-74
2023/01/10 08:40:43;;;;;;;16.63;6.90;;;7.60;99.90;;;;;;5082057;28;20581;-74
2023/01/10 08:43:10;;;;;;;14.67;7.03;;;7.60;99.90;;;;;;5083202;28;20614;-72
2023/01/10 08:45:37;;;;;;;17.57;7.60;;;7.70;99.90;;;;;;5084247;28;20785;-74
2023/01/10 08:48:04;;;;;;;13.00;7.00;;;7.70;99.90;;;;;;5081068;28;20668;-74
2023/01/10 08:50:30;;;;;;;19.80;6.80;;;7.60;99.90;;;;;;5082518;28;20751;-75
2023/01/10 08:52:58;;;;;;;15.53;7.13;;;7.60;99.90;;;;;;5059345;28;20218;-73
2023/01/10 08:55:24;;;;;;;13.47;7.53;;;7.60;99.90;;;;;;5079305;28;20346;-75
2023/01/10 08:57:49;;;;;;;15.60;7.37;;;7.60;99.90;;;;;;5065671;28;20209;-74
2023/01/10 09:00:15;;;;;;;16.67;7.53;;;7.80;99.90;;;;;;5080765;28;20576;-72
2023/01/10 09:02:41;;;;;;;15.20;7.50;;;8.30;99.90;;;;;;5082117;28;20197;-75
2023/01/10 09:05:07;;;;;;;16.63;7.40;;;8.50;99.90;;;;;;5080626;28;20966;-74
2023/01/10 09:07:33;;;;;;;16.53;7.17;;;8.80;99.90;;;;;;5082437;28;20226;-74
2023/01/10 09:09:58;;;;;;;13.90;6.60;;;8.80;99.90;;;;;;5079297;28;20699;-72
2023/01/10 09:15:09;;;;;;;10.50;6.67;;;8.70;99.90;;;;;;5079384;28;20229;-74
2023/01/10 09:17:34;;;;;;;11.57;6.17;;;8.60;99.90;;;;;;5083299;28;20179;-74
2023/01/10 09:20:04;;;;;;;10.77;6.17;;;8.50;99.90;;;;;;5059984;28;20215;-74
2023/01/10 09:22:30;;;;;;;12.00;6.43;;;8.40;99.90;;;;;;5080900;28;20214;-73
2023/01/10 09:24:56;;;;;;;13.87;7.33;;;8.30;99.90;;;;;;5081648;28;20653;-73
2023/01/10 09:27:21;;;;;;;13.10;6.43;;;8.30;99.90;;;;;;5083145;28;20676;-74
2023/01/10 09:29:47;;;;;;;11.73;6.23;;;8.40;99.90;;;;;;5076811;28;20352;-74
2023/01/10 09:32:13;;;;;;;11.63;6.97;;;8.50;99.90;;;;;;5081043;28;20690;-75
2023/01/10 09:34:38;;;;;;;11.53;6.40;;;8.70;99.90;;;;;;5064348;28;20261;-74
2023/01/10 09:37:04;;;;;;;12.13;6.30;;;8.70;99.90;;;;;;5078890;28;20202;-72
2023/01/10 09:39:31;;;;;;;13.23;7.00;;;8.70;99.90;;;;;;5082609;28;20210;-73
2023/01/10 09:42:14;;;;;;;14.37;5.63;;;8.80;99.90;;;;;;5076038;28;20236;-74
2023/01/10 09:45:04;;;;;;;16.80;7.40;;;8.60;99.90;;;;;;5059817;28;20226;-74
2023/01/10 09:47:42;;;;;;;12.50;6.47;;;8.50;99.90;;;;;;5084529;28;20245;-73
2023/01/10 09:50:30;;;;;;;15.50;6.40;;;8.50;99.90;;;;;;5075256;28;20211;-74
2023/01/10 09:53:04;;;;;;;12.27;6.00;;;8.40;99.90;;;;;;5058713;28;20215;-73
2023/01/10 09:55:36;;;;;;;14.43;6.07;;;8.20;99.90;;;;;;5060837;28;20210;-74
2023/01/10 09:58:15;;;;;;;13.33;6.17;;;8.20;99.90;;;;;;5077875;28;20256;-74
2023/01/10 10:00:43;;;;;;;13.43;7.23;;;8.30;99.90;;;;;;5078150;28;20257;-75
2023/01/10 10:03:35;;;;;;;16.37;6.97;;;8.50;99.90;;;;;;5079101;28;20312;-74
2023/01/10 10:06:02;;;;;;;11.33;6.90;;;8.70;99.90;;;;;;5079556;28;20293;-74
2023/01/10 10:08:28;;;;;;;12.70;6.50;;;9.10;99.90;;;;;;5054066;28;20297;-74
2023/01/10 10:11:15;;;;;;;9.73;6.07;;;9.30;99.90;;;;;;5078250;28;20221;-73
2023/01/10 10:14:00;;;;;;;12.03;6.27;;;9.30;99.90;;;;;;5077724;28;20206;-74
2023/01/10 10:16:43;;;;;;;11.90;6.30;;;9.20;99.90;;;;;;5076824;28;20207;-72
2023/01/10 10:19:11;;;;;;;10.97;5.90;;;9.00;99.90;;;;;;5078950;28;20652;-73
2023/01/10 10:21:55;;;;;;;13.43;6.63;;;9.00;99.90;;;;;;5081429;28;20411;-74
2023/01/10 10:24:34;;;;;;;11.90;6.00;;;9.00;99.90;;;;;;5076617;28;20194;-74
2023/01/10 10:27:15;;;;;;;16.00;5.83;;;8.90;99.90;;;;;;5061843;28;20232;-74
2023/01/10 10:30:11;;;;;;;16.57;5.80;;;8.70;99.90;;;;;;5074043;28;20251;-74
2023/01/10 10:32:59;;;;;;;14.37;5.50;;;8.50;99.90;;;;;;5068239;28;20210;-74
2023/01/10 10:35:28;;;;;;;12.83;5.80;;;8.40;99.90;;;;;;5082284;28;20262;-73
2023/01/10 10:38:00;;;;;;;13.77;6.17;;;8.40;99.90;;;;;;5078841;28;20305;-72
2023/01/10 10:40:39;;;;;;;17.40;5.90;;;8.40;99.90;;;;;;5079346;28;20706;-73
2023/01/10 10:43:20;;;;;;;14.33;5.47;;;8.50;99.90;;;;;;5060599;28;20217;-74
2023/01/10 10:45:59;;;;;;;17.93;5.10;;;8.50;99.90;;;;;;5079353;28;20214;-72
2023/01/10 10:48:43;;;;;;;14.80;5.47;;;8.40;99.90;;;;;;5081177;28;20222;-73
2023/01/10 10:51:18;;;;;;;13.00;4.37;;;8.40;99.90;;;;;;5073818;28;20271;-74
2023/01/10 10:53:46;;;;;;;12.67;4.50;;;8.40;99.90;;;;;;5076141;28;20182;-73
2023/01/10 10:56:16;;;;;;;12.67;5.37;;;8.60;99.90;;;;;;5078119;28;20862;-73
2023/01/10 10:58:44;;;;;;;14.57;4.70;;;8.70;99.90;;;;;;5078585;28;20218;-75
2023/01/10 11:01:13;;;;;;;11.57;5.23;;;8.70;99.90;;;;;;5078552;28;20217;-75
2023/01/10 11:03:48;;;;;;;16.00;6.03;;;8.70;99.90;;;;;;5061097;28;20218;-74
2023/01/10 11:06:16;;;;;;;12.93;5.57;;;8.70;99.90;;;;;;5078735;28;20171;-74
2023/01/10 11:08:44;;;;;;;14.73;5.53;;;8.60;99.90;;;;;;5080957;28;20200;-74
2023/01/10 11:11:34;;;;;;;13.20;4.90;;;8.70;99.90;;;;;;5065261;28;20210;-75
2023/01/10 11:14:02;;;;;;;15.73;6.23;;;8.70;99.90;;;;;;5076187;28;20203;-74
2023/01/10 11:16:31;;;;;;;8.63;5.47;;;8.80;99.90;;;;;;5077672;28;20260;-73
2023/01/10 11:19:21;;;;;;;12.13;5.63;;;8.90;99.90;;;;;;5078315;28;20206;-75
2023/01/10 11:21:58;;;;;;;17.17;5.00;;;9.00;99.90;;;;;;5060153;28;20206;-73
2023/01/10 11:24:34;;;;;;;10.00;4.73;;;9.10;99.90;;;;;;5075240;28;20691;-73
2023/01/10 11:27:33;;;;;;;8.47;4.70;;;9.10;99.90;;;;;;5079458;28;20181;-74
2023/01/10 11:30:21;;;;;;;12.50;5.23;;;9.10;99.90;;;;;;5054203;28;20285;-75
2023/01/10 11:32:59;;;;;;;11.37;4.50;;;9.40;99.90;;;;;;5071661;28;20206;-75
2023/01/10 11:35:31;;;;;;;14.17;4.67;;;9.70;99.90;;;;;;5083157;28;20254;-74
2023/01/10 11:38:01;;;;;;;14.00;5.07;;;9.70;99.90;;;;;;5078740;28;20321;-75
2023/01/10 11:40:29;;;;;;;12.33;4.70;;;9.70;99.90;;;;;;5058553;23;20245;-74
2023/01/10 11:42:56;;;;;;;10.27;4.30;;;9.60;99.90;;;;;;5070273;28;20220;-75
2023/01/10 11:45:27;;;;;;;11.30;4.77;;;9.30;99.90;;;;;;5071716;28;20223;-76
2023/01/10 11:47:59;;;;;;;11.63;4.73;;;9.30;99.90;;;;;;5070727;28;20178;-74
2023/01/10 11:50:27;;;;;;;13.10;4.93;;;9.40;99.90;;;;;;5044456;28;20241;-76
2023/01/10 11:52:55;;;;;;;13.80;4.13;;;9.40;99.90;;;;;;5070996;28;20215;-75
2023/01/10 11:55:25;;;;;;;12.50;3.83;;;9.50;99.90;;;;;;5071745;28;20207;-76
2023/01/10 11:58:05;;;;;;;14.50;3.90;;;9.50;99.90;;;;;;5053674;28;20294;-75
2023/01/10 12:00:39;;;;;;;14.27;4.17;;;9.40;99.90;;;;;;5069874;28;20661;-76
2023/01/10 12:03:35;;;;;;;16.80;4.63;;;9.40;99.90;;;;;;5070113;28;20179;-75
2023/01/10 12:06:08;;;;;;;14.97;3.70;;;9.40;99.90;;;;;;5043741;28;20217;-75
2023/01/10 12:08:37;;;;;;;9.60;4.27;;;9.40;99.90;;;;;;5065579;28;20203;-75
2023/01/10 12:11:26;;;;;;;14.50;3.17;;;9.50;99.90;;;;;;5066498;28;20206;-73
2023/01/10 12:13:54;;;;;;;12.23;3.93;;;9.50;99.90;;;;;;5075756;28;20204;-75
2023/01/10 12:16:57;;;;;;;12.30;4.33;;;9.50;99.90;;;;;;5072564;28;20291;-75
2023/01/10 12:19:22;;;;;;;13.87;4.57;;;9.40;99.90;;;;;;5069854;28;20210;-73
2023/01/10 12:21:49;;;;;;;10.87;3.93;;;9.50;99.90;;;;;;5073579;28;20616;-75
2023/01/10 12:24:39;;;;;;;11.43;4.07;;;9.70;99.90;;;;;;5057852;28;20247;-72
2023/01/10 12:27:09;;;;;;;12.93;4.13;;;9.70;99.90;;;;;;5090557;28;20650;-76
2023/01/10 12:29:39;;;;;;;11.80;3.60;;;9.80;99.90;;;;;;5089888;28;20210;-75
2023/01/10 12:32:12;;;;;;;16.50;3.93;;;9.70;99.90;;;;;;5093387;28;20220;-75
2023/01/10 12:34:43;;;;;;;13.97;3.57;;;9.70;99.90;;;;;;5071654;28;20214;-76
2023/01/10 12:37:19;;;;;;;13.97;4.20;;;9.70;99.90;;;;;;5089468;28;20217;-75
2023/01/10 12:40:00;;;;;;;12.73;4.10;;;9.70;99.90;;;;;;5092493;28;20684;-75
2023/01/10 12:45:33;;;;;;;9.20;3.20;;;9.70;99.90;;;;;;5092023;28;20228;-76
2023/01/10 12:48:19;;;;;;;11.47;3.93;;;9.60;99.90;;;;;;5090606;28;20611;-75
2023/01/10 12:50:54;;;;;;;14.17;3.80;;;9.60;99.90;;;;;;5087894;28;20297;-75
2023/01/10 12:53:43;;;;;;;11.10;3.30;;;9.60;99.90;;;;;;5088664;28;20275;-75
2023/01/10 12:56:13;;;;;;;15.57;3.77;;;9.50;99.90;;;;;;5091968;28;20707;-74
2023/01/10 12:58:49;;;;;;;11.20;3.10;;;9.50;99.90;;;;;;5074799;28;20225;-75
2023/01/10 13:01:39;;;;;;;13.53;3.23;;;9.40;99.90;;;;;;5091996;28;20209;-75
2023/01/10 13:04:09;;;;;;;6.37;2.90;;;9.40;99.90;;;;;;5072971;28;20213;-75
2023/01/10 13:06:38;;;;;;;10.67;3.33;;;9.40;99.90;;;;;;5093079;28;20210;-75
2023/01/10 13:09:27;;;;;;;8.43;3.20;;;9.30;99.90;;;;;;5074903;28;20190;-74
2023/01/10 13:12:05;;;;;;;13.63;3.00;;;9.30;99.90;;;;;;5071758;28;20677;-73
2023/01/10 13:14:56;;;;;;;9.87;2.73;;;9.30;99.90;;;;;;5089561;28;20301;-75
2023/01/10 13:17:38;;;;;;;10.23;4.33;;;9.20;99.90;;;;;;5074263;28;20259;-72
2023/01/10 13:20:15;;;;;;;13.50;3.93;;;9.10;99.90;;;;;;5090033;28;20290;-73